Time;durP1;ratioP1;P1;durP2;ratioP2;P2;SDS_P1;SDS_P2;PMS_P1;PMS_P2;Temp;Humidity;BMP_temperature;BMP_pressure;BME280_temperature;BME280_humidity;BME280_pressure;Samples;Min_cycle;Max_cycle;Signal;HPM_P1;HPM_P2
2024/02/24 00:02:06;;;;;;;2.80;1.80;;;4.00;99.90;;;;;;4955235;28;20233;-51
2024/02/24 00:04:34;;;;;;;1.50;1.40;;;4.10;99.90;;;;;;4941272;28;20210;-55
2024/02/24 00:07:01;;;;;;;4.97;1.90;;;4.10;99.90;;;;;;4960483;28;20236;-51
2024/02/24 00:09:28;;;;;;;4.97;2.50;;;4.00;99.90;;;;;;4960588;28;20222;-53
2024/02/24 00:11:55;;;;;;;7.57;2.00;;;4.00;99.90;;;;;;4962297;28;20197;-53
2024/02/24 00:14:21;;;;;;;3.57;2.10;;;4.00;99.90;;;;;;4954378;28;20225;-53
2024/02/24 00:16:48;;;;;;;4.00;2.73;;;4.00;99.90;;;;;;4952361;28;20283;-50
2024/02/24 00:19:16;;;;;;;4.40;2.30;;;3.90;99.90;;;;;;4963853;28;20194;-50
2024/02/24 00:21:44;;;;;;;2.90;1.47;;;3.90;99.90;;;;;;4930241;28;20304;-53
2024/02/24 00:24:11;;;;;;;2.77;1.30;;;3.90;99.90;;;;;;4963375;28;20264;-52
2024/02/24 00:26:37;;;;;;;2.57;1.57;;;3.90;99.90;;;;;;4958263;28;20966;-52
2024/02/24 00:29:04;;;;;;;2.37;1.47;;;4.00;99.90;;;;;;4953395;28;20378;-49
2024/02/24 00:31:31;;;;;;;3.23;1.47;;;4.00;99.90;;;;;;4957737;28;20253;-53
2024/02/24 00:33:58;;;;;;;1.83;1.20;;;3.90;99.90;;;;;;4954936;28;20685;-48
2024/02/24 00:36:25;;;;;;;2.47;1.40;;;4.00;99.90;;;;;;4950423;28;20264;-54
2024/02/24 00:38:53;;;;;;;2.90;1.40;;;4.00;99.90;;;;;;4949846;28;20194;-50
2024/02/24 00:41:20;;;;;;;5.50;1.47;;;4.00;99.90;;;;;;4960279;28;20198;-54
2024/02/24 00:43:46;;;;;;;2.57;1.40;;;4.00;99.90;;;;;;4952260;28;20209;-50
2024/02/24 00:46:13;;;;;;;1.53;1.30;;;3.90;99.90;;;;;;4963565;28;20202;-50
2024/02/24 00:48:41;;;;;;;1.20;1.07;;;3.90;99.90;;;;;;4950648;28;20926;-52
2024/02/24 00:51:07;;;;;;;1.53;1.37;;;3.90;99.90;;;;;;4963028;28;20272;-49
2024/02/24 00:53:34;;;;;;;2.90;1.47;;;3.90;99.90;;;;;;4935376;28;20214;-52
2024/02/24 00:56:02;;;;;;;1.80;1.20;;;3.90;99.90;;;;;;4963127;28;20229;-51
2024/02/24 00:58:29;;;;;;;2.80;1.33;;;3.80;99.90;;;;;;4955779;28;20221;-55
2024/02/24 01:00:56;;;;;;;2.47;1.23;;;3.80;99.90;;;;;;4950237;28;20218;-51
2024/02/24 01:03:23;;;;;;;2.10;1.40;;;3.80;99.90;;;;;;4958481;28;20194;-54
2024/02/24 01:05:49;;;;;;;3.90;1.57;;;3.80;99.90;;;;;;4955354;28;20202;-54
2024/02/24 01:08:16;;;;;;;3.07;1.40;;;3.80;99.90;;;;;;4938017;28;20309;-52
2024/02/24 01:10:43;;;;;;;4.23;1.60;;;3.80;99.90;;;;;;4959551;28;20198;-54
2024/02/24 01:13:11;;;;;;;1.00;1.00;;;3.80;99.90;;;;;;4962744;28;20620;-53
2024/02/24 01:15:38;;;;;;;3.03;1.23;;;3.80;99.90;;;;;;4949476;28;20225;-51
2024/02/24 01:18:05;;;;;;;3.50;1.17;;;3.80;99.90;;;;;;4958374;28;20222;-55
2024/02/24 01:20:32;;;;;;;1.83;1.17;;;3.80;99.90;;;;;;4951520;28;20218;-54
2024/02/24 01:23:00;;;;;;;3.13;1.63;;;3.80;99.90;;;;;;4950812;28;20210;-52
2024/02/24 01:25:26;;;;;;;2.23;1.03;;;3.80;99.90;;;;;;4935371;28;20228;-55
2024/02/24 01:27:54;;;;;;;3.50;1.00;;;3.80;99.90;;;;;;4961971;28;20909;-49
2024/02/24 01:30:24;;;;;;;2.87;1.03;;;3.80;99.90;;;;;;4961007;28;20206;-52
2024/02/24 01:32:51;;;;;;;2.90;1.10;;;3.80;99.90;;;;;;4955243;28;20422;-54
2024/02/24 01:35:18;;;;;;;2.30;1.00;;;3.70;99.90;;;;;;4951221;28;20210;-53
2024/02/24 01:37:45;;;;;;;1.20;1.10;;;3.80;99.90;;;;;;4959724;28;20222;-53
2024/02/24 01:40:12;;;;;;;2.70;1.10;;;3.70;99.90;;;;;;4931668;28;20205;-50
2024/02/24 01:42:42;;;;;;;1.43;0.87;;;3.70;99.90;;;;;;4959510;28;20249;-52
2024/02/24 01:45:11;;;;;;;2.20;1.10;;;3.70;99.90;;;;;;4962636;28;20193;-53
2024/02/24 01:47:39;;;;;;;3.80;0.90;;;3.70;99.90;;;;;;4950856;28;20802;-48
2024/02/24 01:50:07;;;;;;;3.87;1.40;;;3.60;99.90;;;;;;4962938;28;20304;-52
2024/02/24 01:52:34;;;;;;;3.07;1.00;;;3.60;99.90;;;;;;4949934;28;20209;-51
2024/02/24 01:55:03;;;;;;;1.63;0.90;;;3.60;99.90;;;;;;4962400;28;20202;-53
2024/02/24 01:57:34;;;;;;;1.13;0.83;;;3.60;99.90;;;;;;4934658;28;20572;-53
2024/02/24 02:00:02;;;;;;;1.30;0.63;;;3.60;99.90;;;;;;4962539;28;20198;-49
2024/02/24 02:02:33;;;;;;;2.03;0.80;;;3.60;99.90;;;;;;4949956;28;20210;-52
2024/02/24 02:05:02;;;;;;;3.33;1.03;;;3.50;99.90;;;;;;4962282;28;20731;-49
2024/02/24 02:07:29;;;;;;;1.93;0.73;;;3.50;99.90;;;;;;4951423;28;20240;-51
2024/02/24 02:09:56;;;;;;;3.20;0.90;;;3.50;99.90;;;;;;4961726;28;20707;-53
2024/02/24 02:12:23;;;;;;;5.17;1.00;;;3.50;99.90;;;;;;4936285;28;20276;-54
2024/02/24 02:14:50;;;;;;;3.57;1.10;;;3.50;99.90;;;;;;4959769;28;20190;-50
2024/02/24 02:17:17;;;;;;;0.97;0.73;;;3.50;99.90;;;;;;4961553;28;20320;-53
2024/02/24 02:19:44;;;;;;;3.50;0.80;;;3.40;99.90;;;;;;4951344;28;20198;-51
2024/02/24 02:22:16;;;;;;;2.90;1.13;;;3.40;99.90;;;;;;4949051;28;20215;-53
2024/02/24 02:24:44;;;;;;;1.63;0.80;;;3.30;99.90;;;;;;4957208;28;20198;-49
2024/02/24 02:27:11;;;;;;;2.13;0.80;;;3.30;99.90;;;;;;4954309;28;20774;-52
2024/02/24 02:29:38;;;;;;;1.90;1.20;;;3.30;99.90;;;;;;4934127;28;20331;-51
2024/02/24 02:32:07;;;;;;;4.73;1.10;;;3.30;99.90;;;;;;4961145;28;20744;-50
2024/02/24 02:34:34;;;;;;;2.13;1.20;;;3.30;99.90;;;;;;4949776;28;21469;-49
2024/02/24 02:37:01;;;;;;;1.30;0.90;;;3.30;99.90;;;;;;4953333;28;20261;-49
2024/02/24 02:39:28;;;;;;;1.40;0.77;;;3.20;99.90;;;;;;4956134;28;20261;-53
2024/02/24 02:41:56;;;;;;;2.20;1.37;;;3.20;99.90;;;;;;4950878;28;20308;-50
2024/02/24 02:44:23;;;;;;;2.93;1.00;;;3.20;99.90;;;;;;4936631;28;20238;-53
2024/02/24 02:46:50;;;;;;;1.60;1.10;;;3.20;99.90;;;;;;4959805;28;20257;-50
2024/02/24 02:49:18;;;;;;;4.57;0.70;;;3.10;99.90;;;;;;4956445;28;20270;-49
2024/02/24 02:51:45;;;;;;;1.60;1.30;;;3.10;99.90;;;;;;4962156;28;20190;-50
2024/02/24 02:54:12;;;;;;;1.77;0.90;;;3.10;99.90;;;;;;4957329;28;20210;-49
2024/02/24 02:56:39;;;;;;;2.83;0.73;;;3.10;99.90;;;;;;4954979;28;20194;-50
2024/02/24 02:59:07;;;;;;;1.70;1.03;;;3.00;99.90;;;;;;4942090;28;20696;-50
2024/02/24 03:01:33;;;;;;;2.37;0.90;;;3.10;99.90;;;;;;4961782;28;20209;-51
2024/02/24 03:04:00;;;;;;;2.30;1.30;;;3.00;99.90;;;;;;4956554;28;20237;-52
2024/02/24 03:06:27;;;;;;;2.40;0.90;;;3.00;99.90;;;;;;4962498;28;20715;-54
2024/02/24 03:08:54;;;;;;;2.40;1.00;;;3.00;99.90;;;;;;4954566;28;20320;-53
2024/02/24 03:11:21;;;;;;;3.93;1.17;;;3.00;99.90;;;;;;4964136;28;20194;-51
2024/02/24 03:13:47;;;;;;;3.23;0.60;;;2.90;99.90;;;;;;4935679;28;20264;-51
2024/02/24 03:16:18;;;;;;;3.33;0.80;;;2.90;99.90;;;;;;4959760;28;20209;-52
2024/02/24 03:18:45;;;;;;;2.40;1.03;;;2.80;99.90;;;;;;4961846;28;20233;-50
2024/02/24 03:21:12;;;;;;;2.80;0.97;;;2.80;99.90;;;;;;4956787;28;20216;-49
2024/02/24 03:23:39;;;;;;;1.80;0.93;;;2.80;99.90;;;;;;4960771;28;20197;-51
2024/02/24 03:26:06;;;;;;;2.03;0.90;;;2.80;99.90;;;;;;4956027;28;20613;-51
2024/02/24 03:28:33;;;;;;;2.13;1.20;;;2.90;99.90;;;;;;4939549;28;20234;-53
2024/02/24 03:30:59;;;;;;;3.77;0.80;;;2.80;99.90;;;;;;4963072;28;20276;-50
2024/02/24 03:33:28;;;;;;;1.50;1.13;;;2.80;99.90;;;;;;4962649;28;20549;-52
2024/02/24 03:35:55;;;;;;;1.93;1.27;;;2.70;99.90;;;;;;4954172;28;20217;-49
2024/02/24 03:38:22;;;;;;;3.17;0.87;;;2.70;99.90;;;;;;4963206;28;20268;-53
2024/02/24 03:40:49;;;;;;;1.97;0.90;;;2.70;99.90;;;;;;4961913;28;20260;-49
2024/02/24 03:43:16;;;;;;;1.23;1.03;;;2.70;99.90;;;;;;4964077;28;20681;-52
2024/02/24 03:45:43;;;;;;;2.27;1.00;;;2.70;99.90;;;;;;4934861;28;20205;-48
2024/02/24 03:48:10;;;;;;;2.30;1.20;;;2.70;99.90;;;;;;4963925;28;20715;-52
2024/02/24 03:50:38;;;;;;;2.73;1.17;;;2.60;99.90;;;;;;4960082;28;20292;-52
2024/02/24 03:53:05;;;;;;;1.67;1.20;;;2.60;99.90;;;;;;4955537;28;20300;-48
2024/02/24 03:55:32;;;;;;;2.67;0.90;;;2.60;99.90;;;;;;4960140;28;20210;-54
2024/02/24 03:57:59;;;;;;;3.83;1.10;;;2.60;99.90;;;;;;4963601;28;20285;-50
2024/02/24 04:00:25;;;;;;;4.37;0.77;;;2.60;99.90;;;;;;4937118;28;20264;-51
2024/02/24 04:02:52;;;;;;;2.27;1.00;;;2.60;99.90;;;;;;4962367;28;20190;-49
2024/02/24 04:05:19;;;;;;;2.33;1.07;;;2.50;99.90;;;;;;4960765;28;20198;-52
2024/02/24 04:07:47;;;;;;;2.60;0.80;;;2.50;99.90;;;;;;4952247;28;20696;-48
2024/02/24 04:10:14;;;;;;;3.83;0.97;;;2.50;99.90;;;;;;4964039;28;20217;-52
2024/02/24 04:12:41;;;;;;;1.40;0.90;;;2.50;99.90;;;;;;4960030;28;20221;-52
2024/02/24 04:15:08;;;;;;;5.63;1.10;;;2.50;99.90;;;;;;4964114;28;20220;-52
2024/02/24 04:17:35;;;;;;;2.17;1.07;;;2.50;99.90;;;;;;4937206;28;20229;-52
2024/02/24 04:20:02;;;;;;;1.53;0.97;;;2.50;99.90;;;;;;4963820;28;21038;-51
2024/02/24 04:22:29;;;;;;;5.73;1.20;;;2.50;99.90;;;;;;4959612;28;20194;-54
2024/02/24 04:24:57;;;;;;;2.20;1.07;;;2.50;99.90;;;;;;4953991;28;20229;-50
2024/02/24 04:27:24;;;;;;;2.50;0.90;;;2.50;99.90;;;;;;4962102;28;20700;-50
2024/02/24 04:29:51;;;;;;;4.60;1.13;;;2.50;99.90;;;;;;4961611;28;20297;-50
2024/02/24 04:32:18;;;;;;;2.63;1.00;;;2.60;99.90;;;;;;4938409;28;20233;-52
2024/02/24 04:34:44;;;;;;;1.50;1.07;;;2.60;99.90;;;;;;4959746;28;20202;-49
2024/02/24 04:37:11;;;;;;;2.30;0.93;;;2.60;99.90;;;;;;4961881;28;20304;-53
2024/02/24 04:39:38;;;;;;;1.67;0.80;;;2.60;99.90;;;;;;4951125;28;20236;-52
2024/02/24 04:42:07;;;;;;;1.47;1.00;;;2.50;99.90;;;;;;4963350;28;20570;-54
2024/02/24 04:44:34;;;;;;;3.50;0.90;;;2.50;99.90;;;;;;4958824;28;20205;-53
2024/02/24 04:47:01;;;;;;;3.53;0.80;;;2.50;99.90;;;;;;4938795;28;20315;-49
2024/02/24 04:49:28;;;;;;;1.53;1.10;;;2.50;99.90;;;;;;4961735;28;20222;-54
2024/02/24 04:51:54;;;;;;;2.97;1.40;;;2.50;99.90;;;;;;4961488;28;20186;-52
2024/02/24 04:54:22;;;;;;;2.00;0.70;;;2.60;99.90;;;;;;4960369;28;20206;-54
2024/02/24 04:56:49;;;;;;;3.97;0.87;;;2.50;99.90;;;;;;4955575;28;20210;-48
2024/02/24 04:59:17;;;;;;;1.00;0.80;;;2.50;99.90;;;;;;4962987;28;20249;-49
2024/02/24 05:01:44;;;;;;;1.47;1.00;;;2.60;99.90;;;;;;4932972;28;20304;-51
2024/02/24 05:04:10;;;;;;;1.93;0.87;;;2.50;99.90;;;;;;4951368;28;20229;-53
2024/02/24 05:06:37;;;;;;;3.10;1.07;;;2.50;99.90;;;;;;4962266;28;20746;-51
2024/02/24 05:09:05;;;;;;;1.57;0.90;;;2.40;99.90;;;;;;4959002;28;21002;-52
2024/02/24 05:11:32;;;;;;;4.87;0.93;;;2.40;99.90;;;;;;4952252;28;20212;-50
2024/02/24 05:13:59;;;;;;;2.13;1.17;;;2.50;99.90;;;;;;4961952;28;20248;-53
2024/02/24 05:16:27;;;;;;;1.63;1.00;;;2.40;99.90;;;;;;4933043;28;20320;-52
2024/02/24 05:18:54;;;;;;;2.10;0.97;;;2.40;99.90;;;;;;4960213;28;20194;-52
2024/02/24 05:21:21;;;;;;;1.83;1.00;;;2.50;99.90;;;;;;4958863;28;20198;-51
2024/02/24 05:23:49;;;;;;;4.13;1.00;;;2.50;99.90;;;;;;4962723;28;20214;-52
2024/02/24 05:26:23;;;;;;;5.50;0.97;;;2.50;99.90;;;;;;4950150;28;20218;-49
2024/02/24 05:28:50;;;;;;;2.83;1.03;;;2.50;99.90;;;;;;4962824;28;20209;-51
2024/02/24 05:31:17;;;;;;;2.60;1.10;;;2.50;99.90;;;;;;4958338;28;20226;-50
2024/02/24 05:33:47;;;;;;;3.90;1.20;;;2.50;99.90;;;;;;4934931;28;20210;-52
2024/02/24 05:36:14;;;;;;;1.67;1.50;;;2.50;99.90;;;;;;4955755;28;20217;-50
2024/02/24 05:38:41;;;;;;;3.27;1.50;;;2.50;99.90;;;;;;4963208;28;20214;-48
2024/02/24 05:41:08;;;;;;;3.80;1.20;;;2.50;99.90;;;;;;4944424;28;20226;-50
2024/02/24 05:43:35;;;;;;;2.47;1.07;;;2.50;99.90;;;;;;4961075;28;20630;-53
2024/02/24 05:46:03;;;;;;;2.93;1.10;;;2.50;99.90;;;;;;4960990;28;20257;-54
2024/02/24 05:48:30;;;;;;;3.37;1.10;;;2.50;99.90;;;;;;4933015;28;20226;-50
2024/02/24 05:50:59;;;;;;;3.63;1.10;;;2.40;99.90;;;;;;4959553;28;20697;-50
2024/02/24 05:53:26;;;;;;;4.30;1.20;;;2.40;99.90;;;;;;4963519;28;20245;-52
2024/02/24 05:55:53;;;;;;;2.37;1.33;;;2.40;99.90;;;;;;4958927;28;20209;-49
2024/02/24 05:58:21;;;;;;;3.63;1.40;;;2.40;99.90;;;;;;4945571;28;20245;-53
2024/02/24 06:00:48;;;;;;;3.07;1.13;;;2.50;99.90;;;;;;4956266;28;20197;-51
2024/02/24 06:03:15;;;;;;;2.37;1.10;;;2.50;99.90;;;;;;4958137;28;20197;-51
2024/02/24 06:05:42;;;;;;;1.87;1.10;;;2.50;99.90;;;;;;4933973;28;20715;-54
2024/02/24 06:08:10;;;;;;;2.90;1.20;;;2.60;99.90;;;;;;4952975;28;20225;-52
2024/02/24 06:10:37;;;;;;;1.67;1.10;;;2.60;99.90;;;;;;4961865;28;20213;-49
2024/02/24 06:13:05;;;;;;;2.90;1.00;;;2.60;99.90;;;;;;4944606;28;20221;-51
2024/02/24 06:15:32;;;;;;;4.93;1.30;;;2.60;99.90;;;;;;4962783;28;20202;-52
2024/02/24 06:17:59;;;;;;;3.47;1.30;;;2.60;99.90;;;;;;4964358;28;20227;-52
2024/02/24 06:20:26;;;;;;;6.90;1.50;;;2.60;99.90;;;;;;4932231;28;20284;-49
2024/02/24 06:22:53;;;;;;;2.43;0.93;;;2.60;99.90;;;;;;4955903;28;20272;-51
2024/02/24 06:25:21;;;;;;;6.13;1.70;;;2.70;99.90;;;;;;4962215;28;20214;-50
2024/02/24 06:27:48;;;;;;;2.37;0.90;;;2.70;99.90;;;;;;4947507;28;20226;-52
2024/02/24 06:30:16;;;;;;;3.23;1.40;;;2.70;99.90;;;;;;4953603;28;20206;-52
2024/02/24 06:32:42;;;;;;;2.47;1.27;;;2.80;99.90;;;;;;4965752;28;20253;-51
2024/02/24 06:35:09;;;;;;;5.30;1.53;;;2.80;99.90;;;;;;4938926;28;20206;-52
2024/02/24 06:37:36;;;;;;;4.30;1.40;;;2.80;99.90;;;;;;4952092;28;21345;-52
2024/02/24 06:40:03;;;;;;;1.63;1.17;;;2.90;99.90;;;;;;4966112;28;20641;-52
2024/02/24 06:42:31;;;;;;;5.43;1.67;;;2.90;99.90;;;;;;4945005;28;20209;-50
2024/02/24 06:44:58;;;;;;;5.00;1.33;;;2.90;99.90;;;;;;4946931;28;20201;-50
2024/02/24 06:47:27;;;;;;;2.67;1.27;;;2.90;99.90;;;;;;4965008;28;20292;-51
2024/02/24 06:49:54;;;;;;;1.77;1.00;;;3.00;99.90;;;;;;4955733;28;20273;-52
2024/02/24 06:52:21;;;;;;;4.33;1.37;;;3.00;99.90;;;;;;4939501;28;20320;-48
2024/02/24 06:54:48;;;;;;;5.03;1.40;;;3.00;99.90;;;;;;4954020;28;20212;-52
2024/02/24 06:57:14;;;;;;;4.43;1.20;;;3.00;99.90;;;;;;4955517;28;20296;-50
2024/02/24 06:59:45;;;;;;;1.70;1.03;;;3.00;99.90;;;;;;4949688;28;20214;-53
2024/02/24 07:02:12;;;;;;;6.23;1.43;;;3.10;99.90;;;;;;4961119;28;20198;-49
2024/02/24 07:04:41;;;;;;;3.57;1.63;;;3.10;99.90;;;;;;4956688;28;20878;-52
2024/02/24 07:07:08;;;;;;;3.37;1.50;;;3.10;99.90;;;;;;4939349;28;20304;-51
2024/02/24 07:09:35;;;;;;;3.20;1.47;;;3.20;99.90;;;;;;4958299;28;20360;-52
2024/02/24 07:12:02;;;;;;;4.60;1.30;;;3.20;99.90;;;;;;4954090;28;20209;-50
2024/02/24 07:14:29;;;;;;;3.53;1.57;;;3.30;99.90;;;;;;4961011;28;20210;-50
2024/02/24 07:16:57;;;;;;;5.50;1.30;;;3.30;99.90;;;;;;4952473;28;20989;-49
2024/02/24 07:19:24;;;;;;;1.20;1.03;;;3.40;99.90;;;;;;4958002;28;20260;-53
2024/02/24 07:21:51;;;;;;;3.67;1.33;;;3.50;99.90;;;;;;4959428;28;20206;-50
2024/02/24 07:24:18;;;;;;;2.33;1.20;;;3.50;99.90;;;;;;4931868;28;20657;-53
2024/02/24 07:26:45;;;;;;;1.53;1.20;;;3.60;99.90;;;;;;4961166;28;20198;-51
2024/02/24 07:29:12;;;;;;;4.10;1.63;;;3.70;99.90;;;;;;4962845;28;20206;-49
2024/02/24 07:31:39;;;;;;;5.23;2.43;;;3.70;99.90;;;;;;4945013;28;20214;-52
2024/02/24 07:34:08;;;;;;;2.20;1.70;;;3.70;99.90;;;;;;4961236;28;20249;-49
2024/02/24 07:36:35;;;;;;;6.07;2.17;;;3.80;99.90;;;;;;4963391;28;20238;-54
2024/02/24 07:39:01;;;;;;;5.03;1.77;;;3.80;99.90;;;;;;4937110;28;20268;-49
2024/02/24 07:41:28;;;;;;;7.43;1.73;;;3.90;99.90;;;;;;4953446;28;20654;-54
2024/02/24 07:43:55;;;;;;;5.03;1.33;;;3.90;99.90;;;;;;4963035;28;20260;-50
2024/02/24 07:46:29;;;;;;;5.33;1.17;;;4.00;99.90;;;;;;4949455;28;20202;-51
2024/02/24 07:48:56;;;;;;;6.33;1.67;;;4.00;99.90;;;;;;4963844;28;20285;-50
2024/02/24 07:51:25;;;;;;;3.43;1.50;;;4.10;99.90;;;;;;4961557;28;20249;-54
2024/02/24 07:53:52;;;;;;;2.13;1.37;;;4.20;99.90;;;;;;4963251;28;20206;-50
2024/02/24 07:56:19;;;;;;;4.00;1.50;;;4.20;99.90;;;;;;4934017;28;20312;-49
2024/02/24 07:58:46;;;;;;;3.60;1.10;;;4.30;99.90;;;;;;4958604;28;20225;-49
2024/02/24 08:01:13;;;;;;;1.70;1.33;;;4.30;99.90;;;;;;4963281;28;20213;-53
2024/02/24 08:03:40;;;;;;;3.47;1.33;;;4.40;99.90;;;;;;4952894;28;20229;-51
2024/02/24 08:06:07;;;;;;;5.27;1.40;;;4.50;99.90;;;;;;4963793;28;20202;-49
2024/02/24 08:08:36;;;;;;;3.47;1.30;;;4.50;99.90;;;;;;4959784;28;20242;-51
2024/02/24 08:11:04;;;;;;;3.23;1.30;;;4.50;99.90;;;;;;4938509;28;20329;-50
2024/02/24 08:13:31;;;;;;;2.63;1.40;;;4.50;99.90;;;;;;4959845;28;20643;-50
2024/02/24 08:16:03;;;;;;;3.17;1.30;;;4.50;99.90;;;;;;4962384;28;20293;-49
2024/02/24 08:18:30;;;;;;;5.13;1.47;;;4.60;99.90;;;;;;4950670;28;20257;-60
2024/02/24 08:20:59;;;;;;;3.50;1.60;;;4.60;99.90;;;;;;4963590;28;20543;-49
2024/02/24 08:23:25;;;;;;;2.13;1.07;;;4.60;99.90;;;;;;4960871;28;20202;-53
2024/02/24 08:25:54;;;;;;;1.63;1.37;;;4.60;99.90;;;;;;4935663;28;21010;-52
2024/02/24 08:28:20;;;;;;;5.57;1.30;;;4.60;99.90;;;;;;4960496;28;20229;-52
2024/02/24 08:30:47;;;;;;;2.50;1.27;;;4.70;99.90;;;;;;4961082;28;20966;-51
2024/02/24 08:33:14;;;;;;;2.60;1.30;;;4.80;99.90;;;;;;4954123;28;20206;-53
2024/02/24 08:35:43;;;;;;;3.37;1.57;;;4.90;99.90;;;;;;4960443;28;20190;-50
2024/02/24 08:38:10;;;;;;;3.23;1.20;;;4.90;99.90;;;;;;4962870;28;20766;-51
2024/02/24 08:40:37;;;;;;;3.37;1.70;;;5.00;99.90;;;;;;4959679;28;20262;-49
2024/02/24 08:43:05;;;;;;;2.90;1.30;;;5.00;99.90;;;;;;4936169;28;20218;-54
2024/02/24 08:45:32;;;;;;;3.53;1.50;;;5.00;99.90;;;;;;4958925;28;20194;-52
2024/02/24 08:47:58;;;;;;;3.40;1.37;;;5.10;99.90;;;;;;4953188;28;20293;-49
2024/02/24 08:50:25;;;;;;;5.50;1.33;;;5.10;99.90;;;;;;4960365;28;20281;-52
2024/02/24 08:52:52;;;;;;;2.67;1.27;;;5.10;99.90;;;;;;4961881;28;20710;-53
2024/02/24 08:55:19;;;;;;;2.63;1.90;;;5.20;99.90;;;;;;4960726;28;20205;-54
2024/02/24 08:57:46;;;;;;;4.67;1.80;;;5.30;99.90;;;;;;4931647;28;20943;-50
2024/02/24 09:00:15;;;;;;;4.20;1.60;;;5.30;99.90;;;;;;4963039;28;20657;-54
2024/02/24 09:02:42;;;;;;;5.03;1.60;;;5.30;99.90;;;;;;4948072;28;20214;-56
2024/02/24 09:05:09;;;;;;;3.77;1.43;;;5.40;99.90;;;;;;4951937;28;20944;-53
2024/02/24 09:07:35;;;;;;;5.40;1.43;;;5.40;99.90;;;;;;4962331;28;20225;-48
2024/02/24 09:10:02;;;;;;;4.63;1.40;;;5.40;99.90;;;;;;4958717;28;20222;-51
2024/02/24 09:12:29;;;;;;;3.87;1.60;;;5.50;99.90;;;;;;4937882;28;20305;-50
2024/02/24 09:14:55;;;;;;;1.60;1.50;;;5.50;99.90;;;;;;4959546;28;20194;-54
2024/02/24 09:17:23;;;;;;;4.97;1.30;;;5.50;99.90;;;;;;4961861;28;21006;-48
2024/02/24 09:19:49;;;;;;;4.67;1.50;;;5.60;99.90;;;;;;4951985;28;20277;-55
2024/02/24 09:22:17;;;;;;;2.73;1.40;;;5.60;99.90;;;;;;4960624;28;20186;-50
2024/02/24 09:24:43;;;;;;;4.37;1.40;;;5.70;99.90;;;;;;4961770;28;20194;-51
2024/02/24 09:27:10;;;;;;;4.53;1.67;;;5.70;99.90;;;;;;4934960;28;20230;-49
2024/02/24 09:29:37;;;;;;;3.87;1.50;;;5.80;99.90;;;;;;4962761;28;20198;-49
2024/02/24 09:32:04;;;;;;;1.77;1.23;;;5.80;99.90;;;;;;4957630;28;20237;-49
2024/02/24 09:34:32;;;;;;;4.57;1.60;;;5.90;99.90;;;;;;4961326;28;20209;-49
2024/02/24 09:37:03;;;;;;;4.00;1.40;;;5.90;99.90;;;;;;4950060;28;20311;-50
2024/02/24 09:39:29;;;;;;;5.83;1.63;;;6.00;99.90;;;;;;4961162;28;20202;-52
2024/02/24 09:41:59;;;;;;;2.23;1.30;;;6.10;99.90;;;;;;4958499;28;20685;-54
2024/02/24 09:44:28;;;;;;;5.00;1.90;;;6.10;99.90;;;;;;4937452;28;20217;-54
2024/02/24 09:46:56;;;;;;;2.97;1.67;;;6.20;99.90;;;;;;4958335;28;20293;-54
2024/02/24 09:49:25;;;;;;;6.10;1.60;;;6.30;99.90;;;;;;4961782;28;20198;-53
2024/02/24 09:51:53;;;;;;;1.57;1.40;;;6.40;99.90;;;;;;4950130;28;20273;-53
2024/02/24 09:54:20;;;;;;;5.63;1.60;;;6.40;99.90;;;;;;4960180;28;20226;-50
2024/02/24 09:56:52;;;;;;;3.83;1.40;;;6.50;99.90;;;;;;4959630;28;20280;-53
2024/02/24 09:59:21;;;;;;;3.63;1.50;;;6.50;99.90;;;;;;4936395;28;20213;-55
2024/02/24 10:01:48;;;;;;;4.03;1.63;;;6.70;99.90;;;;;;4959925;28;21347;-53
2024/02/24 10:04:15;;;;;;;2.60;1.60;;;6.80;99.90;;;;;;4959769;28;20205;-49
2024/02/24 10:06:42;;;;;;;2.90;1.47;;;6.90;99.90;;;;;;4947019;28;20237;-55
2024/02/24 10:09:10;;;;;;;4.07;1.67;;;7.00;99.90;;;;;;4954884;28;20209;-51
2024/02/24 10:11:39;;;;;;;4.60;1.90;;;7.10;99.90;;;;;;4961165;28;20217;-51
2024/02/24 10:14:06;;;;;;;4.60;1.83;;;7.20;99.90;;;;;;4933110;28;20210;-49
2024/02/24 10:16:35;;;;;;;3.53;1.70;;;7.30;99.90;;;;;;4961773;28;20210;-50
2024/02/24 10:19:04;;;;;;;2.63;1.50;;;7.20;99.90;;;;;;4958507;28;20274;-48
2024/02/24 10:21:31;;;;;;;3.80;1.50;;;7.20;99.90;;;;;;4960771;28;20703;-48
2024/02/24 10:23:58;;;;;;;4.83;1.97;;;7.20;99.90;;;;;;4949490;28;20198;-48
2024/02/24 10:26:27;;;;;;;3.73;1.63;;;7.30;99.90;;;;;;4952074;28;20387;-52
2024/02/24 10:28:54;;;;;;;6.30;1.60;;;7.30;99.90;;;;;;4958904;28;20935;-52
2024/02/24 10:31:23;;;;;;;2.13;1.53;;;7.30;99.90;;;;;;4934846;28;20221;-50
2024/02/24 10:33:51;;;;;;;2.13;1.10;;;7.40;99.90;;;;;;4958332;28;21017;-49
2024/02/24 10:36:18;;;;;;;1.90;1.40;;;7.50;99.90;;;;;;4961302;28;20874;-49
2024/02/24 10:38:49;;;;;;;2.53;1.50;;;7.50;99.90;;;;;;4948729;28;20230;-49
2024/02/24 10:41:18;;;;;;;2.87;1.30;;;7.60;99.90;;;;;;4960508;28;20199;-49
2024/02/24 10:43:47;;;;;;;2.70;1.47;;;7.70;99.90;;;;;;4957574;28;20258;-52
2024/02/24 10:46:14;;;;;;;1.43;1.23;;;7.90;99.90;;;;;;4936770;28;20320;-52
2024/02/24 10:48:42;;;;;;;2.20;1.63;;;8.00;99.90;;;;;;4958163;28;20233;-55
2024/02/24 10:51:11;;;;;;;5.90;1.83;;;8.10;99.90;;;;;;4960499;28;20586;-53
2024/02/24 10:53:40;;;;;;;2.87;1.50;;;8.20;99.90;;;;;;4958135;28;20202;-53
2024/02/24 10:56:08;;;;;;;2.43;1.40;;;8.30;99.90;;;;;;4952270;28;20218;-52
2024/02/24 10:58:35;;;;;;;2.43;1.10;;;8.40;99.90;;;;;;4958447;28;20222;-54
2024/02/24 11:01:05;;;;;;;2.60;1.20;;;8.40;99.90;;;;;;4959729;28;20249;-48
2024/02/24 11:03:32;;;;;;;2.90;1.30;;;8.40;99.90;;;;;;4935375;28;20214;-53
2024/02/24 11:05:59;;;;;;;2.30;1.10;;;8.40;99.90;;;;;;4958782;28;20194;-49
2024/02/24 11:08:38;;;;;;;2.10;1.40;;;8.40;99.90;;;;;;4961167;28;20305;-54
2024/02/24 11:11:08;;;;;;;2.70;1.27;;;8.50;99.90;;;;;;4954196;28;20224;-50
2024/02/24 11:13:35;;;;;;;0.70;0.70;;;8.50;99.90;;;;;;4961639;28;21587;-52
2024/02/24 11:16:05;;;;;;;2.20;1.43;;;8.50;99.90;;;;;;4963507;28;20264;-50
2024/02/24 11:18:53;;;;;;;1.93;1.10;;;8.50;99.90;;;;;;4936202;28;21036;-50
2024/02/24 11:21:20;;;;;;;1.43;1.23;;;8.60;99.90;;;;;;4960403;28;20325;-54
2024/02/24 11:23:48;;;;;;;2.30;1.20;;;8.60;99.90;;;;;;4963134;28;20284;-49
2024/02/24 11:26:28;;;;;;;1.80;1.20;;;8.60;99.90;;;;;;4954413;28;20218;-53
2024/02/24 11:29:07;;;;;;;1.77;1.00;;;8.70;99.90;;;;;;4964707;28;20617;-50
2024/02/24 11:31:37;;;;;;;1.40;1.20;;;8.80;99.90;;;;;;4960232;28;20304;-53
2024/02/24 11:34:06;;;;;;;1.97;1.30;;;8.90;99.90;;;;;;4939782;28;20214;-49
2024/02/24 11:36:35;;;;;;;1.20;1.03;;;9.00;99.90;;;;;;4960713;28;20186;-51
2024/02/24 11:39:03;;;;;;;2.40;0.93;;;9.00;99.90;;;;;;4964547;28;20261;-50
2024/02/24 11:41:30;;;;;;;1.00;1.00;;;8.90;99.90;;;;;;4951260;28;20885;-50
2024/02/24 11:43:57;;;;;;;1.00;1.00;;;8.90;99.90;;;;;;4964379;28;20559;-50
2024/02/24 11:46:24;;;;;;;2.80;1.30;;;8.90;99.90;;;;;;4960883;28;20292;-55
2024/02/24 11:48:54;;;;;;;2.17;0.90;;;8.80;99.90;;;;;;4939915;28;20779;-51
2024/02/24 11:51:22;;;;;;;1.27;1.17;;;8.90;99.90;;;;;;4962192;28;20304;-55
2024/02/24 11:53:49;;;;;;;1.00;0.73;;;8.90;99.90;;;;;;4963455;28;20201;-50
2024/02/24 11:56:16;;;;;;;1.73;1.10;;;8.90;99.90;;;;;;4959466;28;20256;-55
2024/02/24 11:58:43;;;;;;;1.43;1.00;;;8.90;99.90;;;;;;4957956;28;20289;-49
2024/02/24 12:01:13;;;;;;;2.57;0.93;;;8.90;99.90;;;;;;4957606;28;20879;-53
2024/02/24 12:03:40;;;;;;;1.13;1.00;;;9.00;99.90;;;;;;4936625;28;20214;-49
2024/02/24 12:06:08;;;;;;;1.10;0.97;;;9.00;99.90;;;;;;4964343;28;20534;-52
2024/02/24 12:08:37;;;;;;;3.70;1.50;;;9.10;99.90;;;;;;4950041;28;20276;-52
2024/02/24 12:11:04;;;;;;;0.97;0.90;;;9.10;99.90;;;;;;4959187;28;20190;-54
2024/02/24 12:13:31;;;;;;;1.27;1.00;;;9.20;99.90;;;;;;4955057;28;20280;-50
2024/02/24 12:15:58;;;;;;;1.47;1.10;;;9.20;99.90;;;;;;4961652;28;20261;-52
2024/02/24 12:18:25;;;;;;;2.57;1.10;;;9.20;99.90;;;;;;4962005;28;20320;-52
2024/02/24 12:20:54;;;;;;;3.10;1.20;;;9.20;99.90;;;;;;4936618;28;20204;-52
2024/02/24 12:23:24;;;;;;;1.23;0.90;;;9.20;99.90;;;;;;4959136;28;20248;-54
2024/02/24 12:25:51;;;;;;;1.33;1.10;;;9.20;99.90;;;;;;4962810;28;20202;-54
2024/02/24 12:28:18;;;;;;;2.43;1.23;;;9.20;99.90;;;;;;4952207;28;21968;-51
2024/02/24 12:30:45;;;;;;;1.87;1.20;;;9.30;99.90;;;;;;4964070;28;20849;-48
2024/02/24 12:33:14;;;;;;;2.47;1.33;;;9.30;99.90;;;;;;4958662;28;20309;-49
2024/02/24 12:35:42;;;;;;;4.97;1.57;;;9.20;99.90;;;;;;4935611;28;20281;-52
2024/02/24 12:38:15;;;;;;;2.43;1.37;;;9.20;99.90;;;;;;4959054;28;20220;-49
2024/02/24 12:40:44;;;;;;;1.70;1.00;;;9.20;99.90;;;;;;4962473;28;20206;-52
2024/02/24 12:43:12;;;;;;;1.40;1.30;;;9.20;99.90;;;;;;4950404;28;20202;-52
2024/02/24 12:45:39;;;;;;;2.13;1.00;;;9.20;99.90;;;;;;4963306;28;20257;-53
2024/02/24 12:48:07;;;;;;;1.00;0.90;;;9.30;99.90;;;;;;4959311;28;21192;-49
2024/02/24 12:50:34;;;;;;;1.60;0.90;;;9.40;99.90;;;;;;4936317;28;20215;-51
2024/02/24 12:53:07;;;;;;;0.80;0.80;;;9.40;99.90;;;;;;4959894;28;20350;-54
2024/02/24 12:55:34;;;;;;;1.57;0.83;;;9.50;99.90;;;;;;4962999;28;20264;-52
2024/02/24 12:58:03;;;;;;;1.20;0.80;;;9.50;99.90;;;;;;4953568;28;20222;-52
2024/02/24 13:00:30;;;;;;;1.20;0.60;;;9.50;99.90;;;;;;4962270;28;20264;-48